sensor_id;sensor_type;location;lat;lon;timestamp;temperature;humidity
19799;DHT22;10059;59.850;10.454;2022-11-11T00:01:32;12.70;99.90
19799;DHT22;10059;59.850;10.454;2022-11-11T00:03:59;12.80;99.90
19799;DHT22;10059;59.850;10.454;2022-11-11T00:06:25;12.70;99.90
19799;DHT22;10059;59.850;10.454;2022-11-11T00:08:54;12.70;99.90
19799;DHT22;10059;59.850;10.454;2022-11-11T00:11:20;12.70;99.90
19799;DHT22;10059;59.850;10.454;2022-11-11T00:13:47;12.70;99.90
19799;DHT22;10059;59.850;10.454;2022-11-11T00:16:16;12.80;99.90
19799;DHT22;10059;59.850;10.454;2022-11-11T00:18:43;12.80;99.90
19799;DHT22;10059;59.850;10.454;2022-11-11T00:21:28;12.80;99.90
19799;DHT22;10059;59.850;10.454;2022-11-11T00:24:21;12.80;99.90
19799;DHT22;10059;59.850;10.454;2022-11-11T00:27:05;12.80;99.90
19799;DHT22;10059;59.850;10.454;2022-11-11T00:29:32;12.80;99.90
19799;DHT22;10059;59.850;10.454;2022-11-11T00:32:00;12.90;99.90
19799;DHT22;10059;59.850;10.454;2022-11-11T00:34:44;12.90;99.90
19799;DHT22;10059;59.850;10.454;2022-11-11T00:37:25;12.90;99.90
19799;DHT22;10059;59.850;10.454;2022-11-11T00:39:53;12.80;99.90
19799;DHT22;10059;59.850;10.454;2022-11-11T00:42:20;12.80;99.90
19799;DHT22;10059;59.850;10.454;2022-11-11T00:44:47;12.80;99.90
19799;DHT22;10059;59.850;10.454;2022-11-11T00:47:14;12.90;99.90
19799;DHT22;10059;59.850;10.454;2022-11-11T00:49:58;12.80;99.90
19799;DHT22;10059;59.850;10.454;2022-11-11T00:52:44;12.80;99.90
19799;DHT22;10059;59.850;10.454;2022-11-11T00:55:12;12.70;99.90
19799;DHT22;10059;59.850;10.454;2022-11-11T00:57:39;12.80;99.90
19799;DHT22;10059;59.850;10.454;2022-11-11T01:00:07;12.70;99.90
19799;DHT22;10059;59.850;10.454;2022-11-11T01:02:34;12.70;99.90
19799;DHT22;10059;59.850;10.454;2022-11-11T01:05:01;12.80;99.90
19799;DHT22;10059;59.850;10.454;2022-11-11T01:07:28;12.80;99.90
19799;DHT22;10059;59.850;10.454;2022-11-11T01:09:55;12.80;99.90
19799;DHT22;10059;59.850;10.454;2022-11-11T01:12:23;12.80;99.90
19799;DHT22;10059;59.850;10.454;2022-11-11T01:14:50;12.80;99.90
19799;DHT22;10059;59.850;10.454;2022-11-11T01:17:18;12.80;99.90
19799;DHT22;10059;59.850;10.454;2022-11-11T01:19:45;12.80;99.90
19799;DHT22;10059;59.850;10.454;2022-11-11T01:22:11;12.80;99.90
19799;DHT22;10059;59.850;10.454;2022-11-11T01:24:38;12.80;99.90
19799;DHT22;10059;59.850;10.454;2022-11-11T01:27:05;12.80;99.90
19799;DHT22;10059;59.850;10.454;2022-11-11T01:29:33;12.90;99.90
19799;DHT22;10059;59.850;10.454;2022-11-11T01:32:00;12.90;99.90
19799;DHT22;10059;59.850;10.454;2022-11-11T01:34:27;12.90;99.90
19799;DHT22;10059;59.850;10.454;2022-11-11T01:36:54;12.90;99.90
19799;DHT22;10059;59.850;10.454;2022-11-11T01:39:21;12.90;99.90
19799;DHT22;10059;59.850;10.454;2022-11-11T01:41:48;12.90;99.90
19799;DHT22;10059;59.850;10.454;2022-11-11T01:44:46;12.80;99.90
19799;DHT22;10059;59.850;10.454;2022-11-11T01:47:16;12.80;99.90
19799;DHT22;10059;59.850;10.454;2022-11-11T01:49:48;12.80;99.90
19799;DHT22;10059;59.850;10.454;2022-11-11T01:52:18;12.70;99.90
19799;DHT22;10059;59.850;10.454;2022-11-11T01:54:48;12.70;99.90
19799;DHT22;10059;59.850;10.454;2022-11-11T01:57:19;12.80;99.90
19799;DHT22;10059;59.850;10.454;2022-11-11T01:59:52;12.90;99.90
19799;DHT22;10059;59.850;10.454;2022-11-11T02:02:28;12.90;99.90
19799;DHT22;10059;59.850;10.454;2022-11-11T02:04:58;12.80;99.90
19799;DHT22;10059;59.850;10.454;2022-11-11T02:07:45;12.80;99.90
19799;DHT22;10059;59.850;10.454;2022-11-11T02:10:12;12.80;99.90
19799;DHT22;10059;59.850;10.454;2022-11-11T02:12:39;12.80;99.90
19799;DHT22;10059;59.850;10.454;2022-11-11T02:15:25;12.80;99.90
19799;DHT22;10059;59.850;10.454;2022-11-11T02:17:52;12.80;99.90
19799;DHT22;10059;59.850;10.454;2022-11-11T02:20:21;12.80;99.90
19799;DHT22;10059;59.850;10.454;2022-11-11T02:22:51;12.90;99.90
19799;DHT22;10059;59.850;10.454;2022-11-11T02:25:26;12.80;99.90
19799;DHT22;10059;59.850;10.454;2022-11-11T02:27:57;12.80;99.90
19799;DHT22;10059;59.850;10.454;2022-11-11T02:30:25;12.80;99.90
19799;DHT22;10059;59.850;10.454;2022-11-11T02:32:52;12.80;99.90
19799;DHT22;10059;59.850;10.454;2022-11-11T02:35:21;12.70;99.90
19799;DHT22;10059;59.850;10.454;2022-11-11T02:37:50;12.80;99.90
19799;DHT22;10059;59.850;10.454;2022-11-11T02:40:20;12.80;99.90
19799;DHT22;10059;59.850;10.454;2022-11-11T02:42:49;12.80;99.90
19799;DHT22;10059;59.850;10.454;2022-11-11T02:45:16;12.80;99.90
19799;DHT22;10059;59.850;10.454;2022-11-11T02:47:43;12.80;99.90
19799;DHT22;10059;59.850;10.454;2022-11-11T02:50:10;12.80;99.90
19799;DHT22;10059;59.850;10.454;2022-11-11T02:52:37;12.80;99.90
19799;DHT22;10059;59.850;10.454;2022-11-11T02:55:04;12.80;99.90
19799;DHT22;10059;59.850;10.454;2022-11-11T02:57:31;12.80;99.90
19799;DHT22;10059;59.850;10.454;2022-11-11T03:00:00;12.90;99.90
19799;DHT22;10059;59.850;10.454;2022-11-11T03:02:27;12.80;99.90
19799;DHT22;10059;59.850;10.454;2022-11-11T03:04:55;12.90;99.90
19799;DHT22;10059;59.850;10.454;2022-11-11T03:07:24;12.90;99.90
19799;DHT22;10059;59.850;10.454;2022-11-11T03:09:51;13.00;99.90
19799;DHT22;10059;59.850;10.454;2022-11-11T03:12:18;13.00;99.90
19799;DHT22;10059;59.850;10.454;2022-11-11T03:14:45;12.90;99.90
19799;DHT22;10059;59.850;10.454;2022-11-11T03:17:13;13.00;99.90
19799;DHT22;10059;59.850;10.454;2022-11-11T03:19:57;13.00;99.90
19799;DHT22;10059;59.850;10.454;2022-11-11T03:22:38;13.00;99.90
19799;DHT22;10059;59.850;10.454;2022-11-11T03:25:05;13.00;99.90
19799;DHT22;10059;59.850;10.454;2022-11-11T03:27:50;13.00;99.90
19799;DHT22;10059;59.850;10.454;2022-11-11T03:30:16;13.00;99.90
19799;DHT22;10059;59.850;10.454;2022-11-11T03:32:45;12.90;99.90
19799;DHT22;10059;59.850;10.454;2022-11-11T03:35:12;12.90;99.90
19799;DHT22;10059;59.850;10.454;2022-11-11T03:37:39;12.90;99.90
19799;DHT22;10059;59.850;10.454;2022-11-11T03:40:23;13.00;99.90
19799;DHT22;10059;59.850;10.454;2022-11-11T03:42:50;13.00;99.90
19799;DHT22;10059;59.850;10.454;2022-11-11T03:45:16;13.00;99.90
19799;DHT22;10059;59.850;10.454;2022-11-11T03:47:45;13.00;99.90
19799;DHT22;10059;59.850;10.454;2022-11-11T03:50:11;13.00;99.90
19799;DHT22;10059;59.850;10.454;2022-11-11T03:52:40;13.00;99.90
19799;DHT22;10059;59.850;10.454;2022-11-11T03:55:08;12.90;99.90
19799;DHT22;10059;59.850;10.454;2022-11-11T03:57:39;13.00;99.90
19799;DHT22;10059;59.850;10.454;2022-11-11T04:00:07;12.90;99.90
19799;DHT22;10059;59.850;10.454;2022-11-11T04:02:34;12.90;99.90
19799;DHT22;10059;59.850;10.454;2022-11-11T04:05:20;12.90;99.90
19799;DHT22;10059;59.850;10.454;2022-11-11T04:08:04;13.00;99.90
19799;DHT22;10059;59.850;10.454;2022-11-11T04:10:48;13.00;99.90
19799;DHT22;10059;59.850;10.454;2022-11-11T04:13:15;13.00;99.90
19799;DHT22;10059;59.850;10.454;2022-11-11T04:15:59;13.00;99.90
19799;DHT22;10059;59.850;10.454;2022-11-11T04:18:32;13.00;99.90
19799;DHT22;10059;59.850;10.454;2022-11-11T04:21:18;13.10;99.90
19799;DHT22;10059;59.850;10.454;2022-11-11T04:24:02;13.20;99.90
19799;DHT22;10059;59.850;10.454;2022-11-11T04:26:52;13.10;99.90
19799;DHT22;10059;59.850;10.454;2022-11-11T04:29:18;13.20;99.90
19799;DHT22;10059;59.850;10.454;2022-11-11T04:31:55;13.20;99.90
19799;DHT22;10059;59.850;10.454;2022-11-11T04:34:39;13.20;99.90
19799;DHT22;10059;59.850;10.454;2022-11-11T04:37:08;13.20;99.90
19799;DHT22;10059;59.850;10.454;2022-11-11T04:39:35;13.20;99.90
19799;DHT22;10059;59.850;10.454;2022-11-11T04:42:20;13.10;99.90
19799;DHT22;10059;59.850;10.454;2022-11-11T04:44:47;13.10;99.90
19799;DHT22;10059;59.850;10.454;2022-11-11T04:47:31;13.10;99.90
19799;DHT22;10059;59.850;10.454;2022-11-11T04:49:58;13.10;99.90
19799;DHT22;10059;59.850;10.454;2022-11-11T04:52:27;13.00;99.90
19799;DHT22;10059;59.850;10.454;2022-11-11T04:54:55;13.00;99.90
19799;DHT22;10059;59.850;10.454;2022-11-11T04:57:40;13.00;99.90
19799;DHT22;10059;59.850;10.454;2022-11-11T05:00:09;13.00;99.90
19799;DHT22;10059;59.850;10.454;2022-11-11T05:02:36;13.00;99.90
19799;DHT22;10059;59.850;10.454;2022-11-11T05:05:21;13.00;99.90
19799;DHT22;10059;59.850;10.454;2022-11-11T05:07:49;13.00;99.90
19799;DHT22;10059;59.850;10.454;2022-11-11T05:10:33;13.00;99.90
19799;DHT22;10059;59.850;10.454;2022-11-11T05:13:01;13.00;99.90
19799;DHT22;10059;59.850;10.454;2022-11-11T05:15:45;13.00;99.90
19799;DHT22;10059;59.850;10.454;2022-11-11T05:18:30;12.90;99.90
19799;DHT22;10059;59.850;10.454;2022-11-11T05:21:17;13.00;99.90
19799;DHT22;10059;59.850;10.454;2022-11-11T05:23:49;12.90;99.90
19799;DHT22;10059;59.850;10.454;2022-11-11T05:26:33;13.00;99.90
19799;DHT22;10059;59.850;10.454;2022-11-11T05:29:00;12.90;99.90
19799;DHT22;10059;59.850;10.454;2022-11-11T05:31:28;12.80;99.90
19799;DHT22;10059;59.850;10.454;2022-11-11T05:33:55;12.90;99.90
19799;DHT22;10059;59.850;10.454;2022-11-11T05:36:22;13.00;99.90
19799;DHT22;10059;59.850;10.454;2022-11-11T05:38:51;12.90;99.90
19799;DHT22;10059;59.850;10.454;2022-11-11T05:41:17;13.00;99.90
19799;DHT22;10059;59.850;10.454;2022-11-11T05:43:44;13.00;99.90
19799;DHT22;10059;59.850;10.454;2022-11-11T05:46:11;13.00;99.90
19799;DHT22;10059;59.850;10.454;2022-11-11T05:48:38;13.00;99.90
19799;DHT22;10059;59.850;10.454;2022-11-11T05:51:25;12.90;99.90
19799;DHT22;10059;59.850;10.454;2022-11-11T05:53:56;12.90;99.90
19799;DHT22;10059;59.850;10.454;2022-11-11T05:56:24;12.90;99.90
19799;DHT22;10059;59.850;10.454;2022-11-11T05:58:51;12.90;99.90
19799;DHT22;10059;59.850;10.454;2022-11-11T06:01:18;12.90;99.90
19799;DHT22;10059;59.850;10.454;2022-11-11T06:03:46;12.80;99.90
19799;DHT22;10059;59.850;10.454;2022-11-11T06:06:13;12.90;99.90
19799;DHT22;10059;59.850;10.454;2022-11-11T06:08:40;12.90;99.90
19799;DHT22;10059;59.850;10.454;2022-11-11T06:11:08;12.80;99.90
19799;DHT22;10059;59.850;10.454;2022-11-11T06:13:35;12.80;99.90
19799;DHT22;10059;59.850;10.454;2022-11-11T06:16:03;12.80;99.90
19799;DHT22;10059;59.850;10.454;2022-11-11T06:18:30;12.70;99.90
19799;DHT22;10059;59.850;10.454;2022-11-11T06:20:58;12.70;99.90
19799;DHT22;10059;59.850;10.454;2022-11-11T06:23:26;12.70;99.90
19799;DHT22;10059;59.850;10.454;2022-11-11T06:25:54;12.80;99.90
19799;DHT22;10059;59.850;10.454;2022-11-11T06:28:42;12.80;99.90
19799;DHT22;10059;59.850;10.454;2022-11-11T06:31:11;12.80;99.90
19799;DHT22;10059;59.850;10.454;2022-11-11T06:33:38;12.80;99.90
19799;DHT22;10059;59.850;10.454;2022-11-11T06:36:06;12.80;99.90
19799;DHT22;10059;59.850;10.454;2022-11-11T06:38:33;12.80;99.90
19799;DHT22;10059;59.850;10.454;2022-11-11T06:41:00;12.80;99.90
19799;DHT22;10059;59.850;10.454;2022-11-11T06:43:27;12.80;99.90
19799;DHT22;10059;59.850;10.454;2022-11-11T06:45:56;12.80;99.90
19799;DHT22;10059;59.850;10.454;2022-11-11T06:48:24;12.80;99.90
19799;DHT22;10059;59.850;10.454;2022-11-11T06:50:51;12.90;99.90
19799;DHT22;10059;59.850;10.454;2022-11-11T06:53:19;12.80;99.90
19799;DHT22;10059;59.850;10.454;2022-11-11T06:55:46;12.80;99.90
19799;DHT22;10059;59.850;10.454;2022-11-11T06:58:14;12.80;99.90
19799;DHT22;10059;59.850;10.454;2022-11-11T07:00:42;12.80;99.90
19799;DHT22;10059;59.850;10.454;2022-11-11T07:03:12;12.80;99.90
19799;DHT22;10059;59.850;10.454;2022-11-11T07:05:40;12.80;99.90
19799;DHT22;10059;59.850;10.454;2022-11-11T07:08:09;12.80;99.90
19799;DHT22;10059;59.850;10.454;2022-11-11T07:10:38;12.80;99.90
19799;DHT22;10059;59.850;10.454;2022-11-11T07:13:06;12.80;99.90
19799;DHT22;10059;59.850;10.454;2022-11-11T07:15:33;12.80;99.90
19799;DHT22;10059;59.850;10.454;2022-11-11T07:18:01;12.80;99.90
19799;DHT22;10059;59.850;10.454;2022-11-11T07:20:29;12.80;99.90
19799;DHT22;10059;59.850;10.454;2022-11-11T07:22:56;12.80;99.90
19799;DHT22;10059;59.850;10.454;2022-11-11T07:25:23;12.90;99.90
19799;DHT22;10059;59.850;10.454;2022-11-11T07:27:50;12.90;99.90
19799;DHT22;10059;59.850;10.454;2022-11-11T07:30:17;12.90;99.90
19799;DHT22;10059;59.850;10.454;2022-11-11T07:32:45;12.90;99.90
19799;DHT22;10059;59.850;10.454;2022-11-11T07:35:13;12.90;99.90
19799;DHT22;10059;59.850;10.454;2022-11-11T07:37:41;13.00;99.90
19799;DHT22;10059;59.850;10.454;2022-11-11T07:40:09;13.00;99.90
19799;DHT22;10059;59.850;10.454;2022-11-11T07:42:38;13.10;99.90
19799;DHT22;10059;59.850;10.454;2022-11-11T07:45:06;13.10;99.90
19799;DHT22;10059;59.850;10.454;2022-11-11T07:47:34;13.20;99.90
19799;DHT22;10059;59.850;10.454;2022-11-11T07:50:01;13.20;99.90
19799;DHT22;10059;59.850;10.454;2022-11-11T07:52:29;13.30;99.90
19799;DHT22;10059;59.850;10.454;2022-11-11T07:54:57;13.40;99.90
19799;DHT22;10059;59.850;10.454;2022-11-11T07:57:24;13.50;99.90
19799;DHT22;10059;59.850;10.454;2022-11-11T07:59:51;13.50;99.90
19799;DHT22;10059;59.850;10.454;2022-11-11T08:02:18;13.60;99.90
19799;DHT22;10059;59.850;10.454;2022-11-11T08:04:45;13.60;99.90
19799;DHT22;10059;59.850;10.454;2022-11-11T08:07:12;13.60;99.90
19799;DHT22;10059;59.850;10.454;2022-11-11T08:09:39;13.70;99.90
19799;DHT22;10059;59.850;10.454;2022-11-11T08:12:08;13.70;99.90
19799;DHT22;10059;59.850;10.454;2022-11-11T08:14:52;13.70;99.90
19799;DHT22;10059;59.850;10.454;2022-11-11T08:17:19;13.60;99.90
19799;DHT22;10059;59.850;10.454;2022-11-11T08:19:46;13.50;99.90
19799;DHT22;10059;59.850;10.454;2022-11-11T08:22:13;13.60;99.90
19799;DHT22;10059;59.850;10.454;2022-11-11T08:24:40;13.60;99.90
19799;DHT22;10059;59.850;10.454;2022-11-11T08:27:08;13.60;99.90
19799;DHT22;10059;59.850;10.454;2022-11-11T08:29:35;13.70;99.90
19799;DHT22;10059;59.850;10.454;2022-11-11T08:32:02;13.60;99.90
19799;DHT22;10059;59.850;10.454;2022-11-11T08:34:29;13.60;99.90
19799;DHT22;10059;59.850;10.454;2022-11-11T08:37:03;13.70;99.90
19799;DHT22;10059;59.850;10.454;2022-11-11T08:39:30;13.80;99.90
19799;DHT22;10059;59.850;10.454;2022-11-11T08:41:57;13.80;99.90
19799;DHT22;10059;59.850;10.454;2022-11-11T08:44:25;13.90;99.90
19799;DHT22;10059;59.850;10.454;2022-11-11T08:46:52;14.00;99.90
19799;DHT22;10059;59.850;10.454;2022-11-11T08:49:19;14.10;99.90
19799;DHT22;10059;59.850;10.454;2022-11-11T08:51:46;13.90;99.90
19799;DHT22;10059;59.850;10.454;2022-11-11T08:54:13;14.00;99.90
19799;DHT22;10059;59.850;10.454;2022-11-11T08:56:40;14.00;99.90
19799;DHT22;10059;59.850;10.454;2022-11-11T08:59:08;13.90;99.90
19799;DHT22;10059;59.850;10.454;2022-11-11T09:01:37;14.00;99.90
19799;DHT22;10059;59.850;10.454;2022-11-11T09:04:04;14.10;99.90
19799;DHT22;10059;59.850;10.454;2022-11-11T09:06:30;14.20;99.90
19799;DHT22;10059;59.850;10.454;2022-11-11T09:08:57;14.10;99.90
19799;DHT22;10059;59.850;10.454;2022-11-11T09:11:24;14.20;99.90
19799;DHT22;10059;59.850;10.454;2022-11-11T09:13:52;14.60;99.90
19799;DHT22;10059;59.850;10.454;2022-11-11T09:16:19;14.60;99.90
19799;DHT22;10059;59.850;10.454;2022-11-11T09:18:47;14.50;99.90
19799;DHT22;10059;59.850;10.454;2022-11-11T09:21:14;14.30;99.90
19799;DHT22;10059;59.850;10.454;2022-11-11T09:23:41;14.40;99.90
19799;DHT22;10059;59.850;10.454;2022-11-11T09:26:08;14.60;99.90
19799;DHT22;10059;59.850;10.454;2022-11-11T09:28:35;14.80;99.90
19799;DHT22;10059;59.850;10.454;2022-11-11T09:31:02;14.90;99.90
19799;DHT22;10059;59.850;10.454;2022-11-11T09:33:29;15.30;99.90
19799;DHT22;10059;59.850;10.454;2022-11-11T09:35:58;15.50;99.90
19799;DHT22;10059;59.850;10.454;2022-11-11T09:38:25;16.20;99.90
19799;DHT22;10059;59.850;10.454;2022-11-11T09:41:00;16.20;99.90
19799;DHT22;10059;59.850;10.454;2022-11-11T09:43:36;16.10;99.90
19799;DHT22;10059;59.850;10.454;2022-11-11T09:46:21;16.30;99.90
19799;DHT22;10059;59.850;10.454;2022-11-11T09:49:00;16.20;99.90
19799;DHT22;10059;59.850;10.454;2022-11-11T09:51:39;16.20;99.90
19799;DHT22;10059;59.850;10.454;2022-11-11T09:54:11;16.10;99.90
19799;DHT22;10059;59.850;10.454;2022-11-11T09:56:41;16.00;99.90
19799;DHT22;10059;59.850;10.454;2022-11-11T09:59:13;15.80;99.90
19799;DHT22;10059;59.850;10.454;2022-11-11T10:01:45;15.70;99.90
19799;DHT22;10059;59.850;10.454;2022-11-11T10:04:23;15.50;99.90
19799;DHT22;10059;59.850;10.454;2022-11-11T10:06:56;15.60;99.90
19799;DHT22;10059;59.850;10.454;2022-11-11T10:09:30;15.50;99.90
19799;DHT22;10059;59.850;10.454;2022-11-11T10:12:04;15.30;99.90
19799;DHT22;10059;59.850;10.454;2022-11-11T10:14:36;15.30;99.90
19799;DHT22;10059;59.850;10.454;2022-11-11T10:17:11;15.50;99.90
19799;DHT22;10059;59.850;10.454;2022-11-11T10:19:49;15.80;99.90
19799;DHT22;10059;59.850;10.454;2022-11-11T10:22:21;16.20;99.90
19799;DHT22;10059;59.850;10.454;2022-11-11T10:24:52;16.90;99.90
19799;DHT22;10059;59.850;10.454;2022-11-11T10:27:21;17.40;99.90
19799;DHT22;10059;59.850;10.454;2022-11-11T10:29:49;17.80;99.90
19799;DHT22;10059;59.850;10.454;2022-11-11T10:32:18;18.40;99.90
19799;DHT22;10059;59.850;10.454;2022-11-11T10:34:46;18.70;99.90
19799;DHT22;10059;59.850;10.454;2022-11-11T10:37:18;18.60;99.90
19799;DHT22;10059;59.850;10.454;2022-11-11T10:39:59;18.30;99.90
19799;DHT22;10059;59.850;10.454;2022-11-11T10:42:27;18.20;99.90
19799;DHT22;10059;59.850;10.454;2022-11-11T10:44:58;17.70;99.90
19799;DHT22;10059;59.850;10.454;2022-11-11T10:47:39;16.90;99.90
19799;DHT22;10059;59.850;10.454;2022-11-11T10:50:13;17.00;99.90
19799;DHT22;10059;59.850;10.454;2022-11-11T10:52:46;16.90;99.90
19799;DHT22;10059;59.850;10.454;2022-11-11T10:55:18;16.60;99.90
19799;DHT22;10059;59.850;10.454;2022-11-11T10:57:51;16.70;99.90
19799;DHT22;10059;59.850;10.454;2022-11-11T11:00:19;17.40;99.90
19799;DHT22;10059;59.850;10.454;2022-11-11T11:02:52;18.60;99.90
19799;DHT22;10059;59.850;10.454;2022-11-11T11:05:25;19.70;99.90
19799;DHT22;10059;59.850;10.454;2022-11-11T11:07:55;20.50;99.90
19799;DHT22;10059;59.850;10.454;2022-11-11T11:10:27;20.80;99.90
19799;DHT22;10059;59.850;10.454;2022-11-11T11:13:02;21.60;99.90
19799;DHT22;10059;59.850;10.454;2022-11-11T11:15:31;22.20;99.90
19799;DHT22;10059;59.850;10.454;2022-11-11T11:18:03;21.50;99.90
19799;DHT22;10059;59.850;10.454;2022-11-11T11:20:31;19.80;99.90
19799;DHT22;10059;59.850;10.454;2022-11-11T11:22:58;19.50;99.90
19799;DHT22;10059;59.850;10.454;2022-11-11T11:25:30;18.60;99.90
19799;DHT22;10059;59.850;10.454;2022-11-11T11:28:06;18.60;99.90
19799;DHT22;10059;59.850;10.454;2022-11-11T11:30:33;18.30;99.90
19799;DHT22;10059;59.850;10.454;2022-11-11T11:33:02;17.80;99.90
19799;DHT22;10059;59.850;10.454;2022-11-11T11:35:32;17.20;99.90
19799;DHT22;10059;59.850;10.454;2022-11-11T11:38:00;16.90;99.90
19799;DHT22;10059;59.850;10.454;2022-11-11T11:40:47;16.60;99.90
19799;DHT22;10059;59.850;10.454;2022-11-11T11:43:32;17.40;99.90
19799;DHT22;10059;59.850;10.454;2022-11-11T11:46:01;17.50;99.90
19799;DHT22;10059;59.850;10.454;2022-11-11T11:48:41;18.20;99.90
19799;DHT22;10059;59.850;10.454;2022-11-11T11:51:17;17.60;99.90
19799;DHT22;10059;59.850;10.454;2022-11-11T11:53:56;17.30;99.90
19799;DHT22;10059;59.850;10.454;2022-11-11T11:56:36;17.30;99.90
19799;DHT22;10059;59.850;10.454;2022-11-11T11:59:10;16.90;99.90
19799;DHT22;10059;59.850;10.454;2022-11-11T12:01:45;16.40;99.90
19799;DHT22;10059;59.850;10.454;2022-11-11T12:04:48;16.20;99.90
19799;DHT22;10059;59.850;10.454;2022-11-11T12:07:31;16.20;99.90
19799;DHT22;10059;59.850;10.454;2022-11-11T12:10:07;16.40;99.90
19799;DHT22;10059;59.850;10.454;2022-11-11T12:12:44;16.30;99.90
19799;DHT22;10059;59.850;10.454;2022-11-11T12:15:29;16.20;99.90
19799;DHT22;10059;59.850;10.454;2022-11-11T12:18:17;16.60;99.90
19799;DHT22;10059;59.850;10.454;2022-11-11T12:20:50;16.80;99.90
19799;DHT22;10059;59.850;10.454;2022-11-11T12:23:38;17.30;99.90
19799;DHT22;10059;59.850;10.454;2022-11-11T12:26:15;17.70;99.90
19799;DHT22;10059;59.850;10.454;2022-11-11T12:28:55;18.00;99.90
19799;DHT22;10059;59.850;10.454;2022-11-11T12:31:33;18.50;99.90
19799;DHT22;10059;59.850;10.454;2022-11-11T12:34:20;19.30;99.90
19799;DHT22;10059;59.850;10.454;2022-11-11T12:36:53;19.30;99.90
19799;DHT22;10059;59.850;10.454;2022-11-11T12:39:35;19.90;99.90
19799;DHT22;10059;59.850;10.454;2022-11-11T12:42:16;19.40;99.90
19799;DHT22;10059;59.850;10.454;2022-11-11T12:44:54;17.90;99.90
19799;DHT22;10059;59.850;10.454;2022-11-11T12:47:30;17.40;99.90
19799;DHT22;10059;59.850;10.454;2022-11-11T12:50:11;16.70;99.90
19799;DHT22;10059;59.850;10.454;2022-11-11T12:52:49;17.00;99.90
19799;DHT22;10059;59.850;10.454;2022-11-11T12:55:27;17.50;99.90
19799;DHT22;10059;59.850;10.454;2022-11-11T12:58:06;17.50;99.90
19799;DHT22;10059;59.850;10.454;2022-11-11T13:00:41;17.40;99.90
19799;DHT22;10059;59.850;10.454;2022-11-11T13:03:20;17.80;99.90
19799;DHT22;10059;59.850;10.454;2022-11-11T13:05:58;18.20;99.90
19799;DHT22;10059;59.850;10.454;2022-11-11T13:11:20;18.80;99.90
19799;DHT22;10059;59.850;10.454;2022-11-11T13:13:57;18.50;99.90
19799;DHT22;10059;59.850;10.454;2022-11-11T13:16:28;17.70;99.90
19799;DHT22;10059;59.850;10.454;2022-11-11T13:18:58;17.30;99.90
19799;DHT22;10059;59.850;10.454;2022-11-11T13:21:39;16.70;99.90
19799;DHT22;10059;59.850;10.454;2022-11-11T13:24:09;16.60;99.90
19799;DHT22;10059;59.850;10.454;2022-11-11T13:26:40;16.40;99.90
19799;DHT22;10059;59.850;10.454;2022-11-11T13:29:40;16.10;99.90
19799;DHT22;10059;59.850;10.454;2022-11-11T13:32:15;16.10;99.90
19799;DHT22;10059;59.850;10.454;2022-11-11T13:34:45;15.90;99.90
19799;DHT22;10059;59.850;10.454;2022-11-11T13:37:20;15.80;99.90
19799;DHT22;10059;59.850;10.454;2022-11-11T13:39:49;15.70;99.90
19799;DHT22;10059;59.850;10.454;2022-11-11T13:42:21;15.70;99.90
19799;DHT22;10059;59.850;10.454;2022-11-11T13:44:50;15.60;99.90
19799;DHT22;10059;59.850;10.454;2022-11-11T13:47:26;15.50;99.90
19799;DHT22;10059;59.850;10.454;2022-11-11T13:49:58;15.40;99.90
19799;DHT22;10059;59.850;10.454;2022-11-11T13:52:28;15.30;99.90
19799;DHT22;10059;59.850;10.454;2022-11-11T13:55:00;15.30;99.90
19799;DHT22;10059;59.850;10.454;2022-11-11T13:57:30;15.20;99.90
19799;DHT22;10059;59.850;10.454;2022-11-11T14:00:00;15.20;99.90
19799;DHT22;10059;59.850;10.454;2022-11-11T14:02:31;15.30;99.90
19799;DHT22;10059;59.850;10.454;2022-11-11T14:05:15;15.10;99.90
19799;DHT22;10059;59.850;10.454;2022-11-11T14:07:50;15.10;99.90
19799;DHT22;10059;59.850;10.454;2022-11-11T14:10:50;15.10;99.90
19799;DHT22;10059;59.850;10.454;2022-11-11T14:13:38;15.00;99.90
19799;DHT22;10059;59.850;10.454;2022-11-11T14:16:09;15.00;99.90
19799;DHT22;10059;59.850;10.454;2022-11-11T14:18:42;14.90;99.90
19799;DHT22;10059;59.850;10.454;2022-11-11T14:21:10;15.00;99.90
19799;DHT22;10059;59.850;10.454;2022-11-11T14:23:57;15.10;99.90
19799;DHT22;10059;59.850;10.454;2022-11-11T14:26:26;15.00;99.90
19799;DHT22;10059;59.850;10.454;2022-11-11T14:28:56;15.10;99.90
19799;DHT22;10059;59.850;10.454;2022-11-11T14:32:00;15.00;99.90
19799;DHT22;10059;59.850;10.454;2022-11-11T14:34:50;15.00;99.90
19799;DHT22;10059;59.850;10.454;2022-11-11T14:40:10;14.90;99.90
19799;DHT22;10059;59.850;10.454;2022-11-11T14:42:44;14.80;99.90
19799;DHT22;10059;59.850;10.454;2022-11-11T14:48:56;14.80;99.90
19799;DHT22;10059;59.850;10.454;2022-11-11T14:51:58;14.90;99.90
19799;DHT22;10059;59.850;10.454;2022-11-11T14:54:40;14.80;99.90
19799;DHT22;10059;59.850;10.454;2022-11-11T14:57:17;14.80;99.90
19799;DHT22;10059;59.850;10.454;2022-11-11T14:59:46;14.80;99.90
19799;DHT22;10059;59.850;10.454;2022-11-11T15:02:30;14.80;99.90
19799;DHT22;10059;59.850;10.454;2022-11-11T15:05:00;14.70;99.90
19799;DHT22;10059;59.850;10.454;2022-11-11T15:07:54;14.60;99.90
19799;DHT22;10059;59.850;10.454;2022-11-11T15:10:31;14.70;99.90
19799;DHT22;10059;59.850;10.454;2022-11-11T15:16:19;14.60;99.90
19799;DHT22;10059;59.850;10.454;2022-11-11T15:21:57;14.50;99.90
19799;DHT22;10059;59.850;10.454;2022-11-11T15:24:34;14.40;99.90
19799;DHT22;10059;59.850;10.454;2022-11-11T15:27:07;14.40;99.90
19799;DHT22;10059;59.850;10.454;2022-11-11T15:29:49;14.40;99.90
19799;DHT22;10059;59.850;10.454;2022-11-11T15:32:21;14.40;99.90
19799;DHT22;10059;59.850;10.454;2022-11-11T15:34:58;14.30;99.90
19799;DHT22;10059;59.850;10.454;2022-11-11T15:37:27;14.20;99.90
19799;DHT22;10059;59.850;10.454;2022-11-11T15:39:57;14.20;99.90
19799;DHT22;10059;59.850;10.454;2022-11-11T15:42:28;14.20;99.90
19799;DHT22;10059;59.850;10.454;2022-11-11T15:44:56;14.20;99.90
19799;DHT22;10059;59.850;10.454;2022-11-11T15:47:24;14.10;99.90
19799;DHT22;10059;59.850;10.454;2022-11-11T15:49:52;14.20;99.90
19799;DHT22;10059;59.850;10.454;2022-11-11T15:52:29;14.10;99.90
19799;DHT22;10059;59.850;10.454;2022-11-11T15:54:59;14.10;99.90
19799;DHT22;10059;59.850;10.454;2022-11-11T15:57:28;14.10;99.90
19799;DHT22;10059;59.850;10.454;2022-11-11T15:59:56;14.00;99.90
19799;DHT22;10059;59.850;10.454;2022-11-11T16:02:26;14.00;99.90